Armorel, Arkansas
Current Conditions -  °F | °C
As of 12:53 AM on Saturday 20 Dec 2014 (Local Time) from KHKA Reporting Station
Overcast Overcast  
Wind Chill: 36°   Ceiling: 6000
Heat Index: 39°   Visibility: 8mi
Dew Point: 36°   Wind: 5mph
Humidity: 89%   Direction: 360°N
Pressure: 30.25"   Gusts: NA
Location:  35.92°N, 89.8°W
Report Text: KHKA 200653Z AUTO 36004KT 8SM OVC060 04/02 A3025 RMK AO2 SLP243 T00390022
Loading
Personal Weather Stations






























Interactive Weather Map New forecast layout! Learn more

10-Day Weather Forecast

Advertisements
Track Severe Weather on mobile